sensor_id;sensor_type;location;lat;lon;timestamp;P1;durP1;ratioP1;P2;durP2;ratioP2
75649;SDS011;64245;51.282;22.494;2023-07-29T00:02:00;0.63;;;0.55;;
75649;SDS011;64245;51.282;22.494;2023-07-29T00:04:26;0.40;;;0.40;;
75649;SDS011;64245;51.282;22.494;2023-07-29T00:06:51;0.80;;;0.70;;
75649;SDS011;64245;51.282;22.494;2023-07-29T00:09:17;1.60;;;0.75;;
75649;SDS011;64245;51.282;22.494;2023-07-29T00:11:43;0.68;;;0.65;;
75649;SDS011;64245;51.282;22.494;2023-07-29T00:14:09;0.52;;;0.45;;
75649;SDS011;64245;51.282;22.494;2023-07-29T00:16:34;1.00;;;0.77;;
75649;SDS011;64245;51.282;22.494;2023-07-29T00:19:00;1.05;;;0.98;;
75649;SDS011;64245;51.282;22.494;2023-07-29T00:21:27;1.05;;;0.93;;
75649;SDS011;64245;51.282;22.494;2023-07-29T00:23:53;1.15;;;0.90;;
75649;SDS011;64245;51.282;22.494;2023-07-29T00:26:19;0.60;;;0.50;;
75649;SDS011;64245;51.282;22.494;2023-07-29T00:28:45;0.80;;;0.63;;
75649;SDS011;64245;51.282;22.494;2023-07-29T00:31:11;1.10;;;0.88;;
75649;SDS011;64245;51.282;22.494;2023-07-29T00:33:37;0.75;;;0.63;;
75649;SDS011;64245;51.282;22.494;2023-07-29T00:36:02;0.45;;;0.45;;
75649;SDS011;64245;51.282;22.494;2023-07-29T00:38:29;0.65;;;0.65;;
75649;SDS011;64245;51.282;22.494;2023-07-29T00:40:55;1.00;;;0.60;;
75649;SDS011;64245;51.282;22.494;2023-07-29T00:43:23;1.35;;;0.80;;
75649;SDS011;64245;51.282;22.494;2023-07-29T00:45:49;1.30;;;0.73;;
75649;SDS011;64245;51.282;22.494;2023-07-29T00:48:15;0.70;;;0.38;;
75649;SDS011;64245;51.282;22.494;2023-07-29T00:50:40;0.65;;;0.65;;
75649;SDS011;64245;51.282;22.494;2023-07-29T00:53:06;1.15;;;1.05;;
75649;SDS011;64245;51.282;22.494;2023-07-29T00:55:32;1.08;;;0.50;;
75649;SDS011;64245;51.282;22.494;2023-07-29T00:57:58;0.85;;;0.70;;
75649;SDS011;64245;51.282;22.494;2023-07-29T01:00:24;2.30;;;0.80;;
75649;SDS011;64245;51.282;22.494;2023-07-29T01:02:51;1.77;;;0.85;;
75649;SDS011;64245;51.282;22.494;2023-07-29T01:05:19;1.48;;;1.00;;
75649;SDS011;64245;51.282;22.494;2023-07-29T01:10:42;1.15;;;1.00;;
75649;SDS011;64245;51.282;22.494;2023-07-29T01:13:19;1.63;;;1.30;;
75649;SDS011;64245;51.282;22.494;2023-07-29T01:18:26;1.55;;;1.00;;
75649;SDS011;64245;51.282;22.494;2023-07-29T01:21:00;0.80;;;0.73;;
75649;SDS011;64245;51.282;22.494;2023-07-29T01:23:33;0.57;;;0.57;;
75649;SDS011;64245;51.282;22.494;2023-07-29T01:25:59;0.93;;;0.55;;
75649;SDS011;64245;51.282;22.494;2023-07-29T01:28:26;2.15;;;1.10;;
75649;SDS011;64245;51.282;22.494;2023-07-29T01:30:57;1.23;;;0.88;;
75649;SDS011;64245;51.282;22.494;2023-07-29T01:33:46;0.82;;;0.77;;
75649;SDS011;64245;51.282;22.494;2023-07-29T01:36:42;1.38;;;0.52;;
75649;SDS011;64245;51.282;22.494;2023-07-29T01:41:37;0.95;;;0.80;;
75649;SDS011;64245;51.282;22.494;2023-07-29T01:44:04;0.70;;;0.70;;
75649;SDS011;64245;51.282;22.494;2023-07-29T01:46:33;1.05;;;0.95;;
75649;SDS011;64245;51.282;22.494;2023-07-29T01:51:24;1.45;;;0.85;;
75649;SDS011;64245;51.282;22.494;2023-07-29T01:53:50;0.60;;;0.60;;
75649;SDS011;64245;51.282;22.494;2023-07-29T01:56:16;0.73;;;0.55;;
75649;SDS011;64245;51.282;22.494;2023-07-29T01:58:42;0.95;;;0.63;;
75649;SDS011;64245;51.282;22.494;2023-07-29T02:01:07;0.38;;;0.22;;
75649;SDS011;64245;51.282;22.494;2023-07-29T02:03:33;0.95;;;0.77;;
75649;SDS011;64245;51.282;22.494;2023-07-29T02:05:58;1.10;;;0.82;;
75649;SDS011;64245;51.282;22.494;2023-07-29T02:08:24;1.55;;;1.10;;
75649;SDS011;64245;51.282;22.494;2023-07-29T02:10:50;0.98;;;0.73;;
75649;SDS011;64245;51.282;22.494;2023-07-29T02:13:16;0.63;;;0.60;;
75649;SDS011;64245;51.282;22.494;2023-07-29T02:15:41;0.98;;;0.60;;
75649;SDS011;64245;51.282;22.494;2023-07-29T02:18:07;1.02;;;0.77;;
75649;SDS011;64245;51.282;22.494;2023-07-29T02:20:33;1.48;;;0.90;;
75649;SDS011;64245;51.282;22.494;2023-07-29T02:22:59;1.13;;;0.88;;
75649;SDS011;64245;51.282;22.494;2023-07-29T02:25:24;1.27;;;0.95;;
75649;SDS011;64245;51.282;22.494;2023-07-29T02:27:50;1.50;;;1.00;;
75649;SDS011;64245;51.282;22.494;2023-07-29T02:30:16;1.48;;;1.00;;
75649;SDS011;64245;51.282;22.494;2023-07-29T02:32:41;2.17;;;1.15;;
75649;SDS011;64245;51.282;22.494;2023-07-29T02:35:07;1.63;;;1.10;;
75649;SDS011;64245;51.282;22.494;2023-07-29T02:37:33;2.00;;;1.20;;
75649;SDS011;64245;51.282;22.494;2023-07-29T02:39:59;1.77;;;1.00;;
75649;SDS011;64245;51.282;22.494;2023-07-29T02:42:25;1.05;;;0.98;;
75649;SDS011;64245;51.282;22.494;2023-07-29T02:44:51;1.27;;;0.95;;
75649;SDS011;64245;51.282;22.494;2023-07-29T02:47:17;1.10;;;0.85;;
75649;SDS011;64245;51.282;22.494;2023-07-29T02:49:42;1.00;;;0.88;;
75649;SDS011;64245;51.282;22.494;2023-07-29T02:52:08;1.92;;;1.38;;
75649;SDS011;64245;51.282;22.494;2023-07-29T02:54:34;1.40;;;1.00;;
75649;SDS011;64245;51.282;22.494;2023-07-29T02:57:00;1.33;;;1.10;;
75649;SDS011;64245;51.282;22.494;2023-07-29T02:59:26;1.13;;;1.02;;
75649;SDS011;64245;51.282;22.494;2023-07-29T03:01:52;1.42;;;0.90;;
75649;SDS011;64245;51.282;22.494;2023-07-29T03:04:18;1.40;;;0.90;;
75649;SDS011;64245;51.282;22.494;2023-07-29T03:06:44;1.92;;;1.25;;
75649;SDS011;64245;51.282;22.494;2023-07-29T03:09:10;1.15;;;1.00;;
75649;SDS011;64245;51.282;22.494;2023-07-29T03:11:35;1.30;;;1.02;;
75649;SDS011;64245;51.282;22.494;2023-07-29T03:14:01;1.02;;;0.90;;
75649;SDS011;64245;51.282;22.494;2023-07-29T03:16:27;1.08;;;0.73;;
75649;SDS011;64245;51.282;22.494;2023-07-29T03:18:53;1.35;;;1.20;;
75649;SDS011;64245;51.282;22.494;2023-07-29T03:21:19;0.85;;;0.73;;
75649;SDS011;64245;51.282;22.494;2023-07-29T03:23:44;1.13;;;0.65;;
75649;SDS011;64245;51.282;22.494;2023-07-29T03:26:10;0.47;;;0.35;;
75649;SDS011;64245;51.282;22.494;2023-07-29T03:28:40;1.63;;;1.00;;
75649;SDS011;64245;51.282;22.494;2023-07-29T03:31:07;2.13;;;1.08;;
75649;SDS011;64245;51.282;22.494;2023-07-29T03:33:33;1.35;;;1.25;;
75649;SDS011;64245;51.282;22.494;2023-07-29T03:35:59;1.67;;;0.70;;
75649;SDS011;64245;51.282;22.494;2023-07-29T03:38:24;1.25;;;0.73;;
75649;SDS011;64245;51.282;22.494;2023-07-29T03:40:50;0.75;;;0.75;;
75649;SDS011;64245;51.282;22.494;2023-07-29T03:43:16;1.33;;;0.80;;
75649;SDS011;64245;51.282;22.494;2023-07-29T03:45:42;1.08;;;0.80;;
75649;SDS011;64245;51.282;22.494;2023-07-29T03:48:08;1.48;;;1.13;;
75649;SDS011;64245;51.282;22.494;2023-07-29T03:50:34;0.52;;;0.52;;
75649;SDS011;64245;51.282;22.494;2023-07-29T03:53:01;1.90;;;0.95;;
75649;SDS011;64245;51.282;22.494;2023-07-29T03:55:27;1.08;;;0.73;;
75649;SDS011;64245;51.282;22.494;2023-07-29T03:57:56;0.70;;;0.70;;
75649;SDS011;64245;51.282;22.494;2023-07-29T04:00:22;0.88;;;0.70;;
75649;SDS011;64245;51.282;22.494;2023-07-29T04:02:48;1.10;;;0.75;;
75649;SDS011;64245;51.282;22.494;2023-07-29T04:05:14;2.15;;;0.98;;
75649;SDS011;64245;51.282;22.494;2023-07-29T04:07:40;1.63;;;1.10;;
75649;SDS011;64245;51.282;22.494;2023-07-29T04:10:06;1.40;;;0.70;;
75649;SDS011;64245;51.282;22.494;2023-07-29T04:12:32;0.50;;;0.47;;
75649;SDS011;64245;51.282;22.494;2023-07-29T04:14:58;0.70;;;0.57;;
75649;SDS011;64245;51.282;22.494;2023-07-29T04:17:24;1.40;;;1.30;;
75649;SDS011;64245;51.282;22.494;2023-07-29T04:19:50;1.00;;;0.90;;
75649;SDS011;64245;51.282;22.494;2023-07-29T04:22:16;1.73;;;0.98;;
75649;SDS011;64245;51.282;22.494;2023-07-29T04:24:42;1.38;;;1.27;;
75649;SDS011;64245;51.282;22.494;2023-07-29T04:27:07;2.65;;;1.13;;
75649;SDS011;64245;51.282;22.494;2023-07-29T04:29:33;2.42;;;1.88;;
75649;SDS011;64245;51.282;22.494;2023-07-29T04:32:01;1.98;;;1.42;;
75649;SDS011;64245;51.282;22.494;2023-07-29T04:34:28;3.30;;;2.08;;
75649;SDS011;64245;51.282;22.494;2023-07-29T04:36:57;2.78;;;2.10;;
75649;SDS011;64245;51.282;22.494;2023-07-29T04:39:23;3.50;;;1.48;;
75649;SDS011;64245;51.282;22.494;2023-07-29T04:41:48;2.30;;;1.63;;
75649;SDS011;64245;51.282;22.494;2023-07-29T04:44:14;2.78;;;1.80;;
75649;SDS011;64245;51.282;22.494;2023-07-29T04:46:40;4.50;;;2.42;;
75649;SDS011;64245;51.282;22.494;2023-07-29T04:49:06;2.47;;;2.20;;
75649;SDS011;64245;51.282;22.494;2023-07-29T04:51:31;3.22;;;2.13;;
75649;SDS011;64245;51.282;22.494;2023-07-29T04:53:58;4.82;;;1.92;;
75649;SDS011;64245;51.282;22.494;2023-07-29T04:56:24;4.10;;;2.60;;
75649;SDS011;64245;51.282;22.494;2023-07-29T04:58:50;3.28;;;2.00;;
75649;SDS011;64245;51.282;22.494;2023-07-29T05:01:16;4.93;;;2.03;;
75649;SDS011;64245;51.282;22.494;2023-07-29T05:03:42;3.00;;;2.13;;
75649;SDS011;64245;51.282;22.494;2023-07-29T05:06:07;3.83;;;3.30;;
75649;SDS011;64245;51.282;22.494;2023-07-29T05:08:33;4.07;;;2.40;;
75649;SDS011;64245;51.282;22.494;2023-07-29T05:10:59;5.25;;;3.05;;
75649;SDS011;64245;51.282;22.494;2023-07-29T05:13:25;3.83;;;2.50;;
75649;SDS011;64245;51.282;22.494;2023-07-29T05:15:51;4.78;;;2.58;;
75649;SDS011;64245;51.282;22.494;2023-07-29T05:18:17;3.35;;;1.77;;
75649;SDS011;64245;51.282;22.494;2023-07-29T05:20:43;2.97;;;1.88;;
75649;SDS011;64245;51.282;22.494;2023-07-29T05:23:09;4.60;;;3.28;;
75649;SDS011;64245;51.282;22.494;2023-07-29T05:25:34;4.40;;;2.63;;
75649;SDS011;64245;51.282;22.494;2023-07-29T05:28:00;4.57;;;2.28;;
75649;SDS011;64245;51.282;22.494;2023-07-29T05:30:26;3.80;;;2.47;;
75649;SDS011;64245;51.282;22.494;2023-07-29T05:32:56;2.97;;;2.40;;
75649;SDS011;64245;51.282;22.494;2023-07-29T05:35:23;3.78;;;2.83;;
75649;SDS011;64245;51.282;22.494;2023-07-29T05:37:49;3.38;;;2.20;;
75649;SDS011;64245;51.282;22.494;2023-07-29T05:40:15;4.40;;;1.92;;
75649;SDS011;64245;51.282;22.494;2023-07-29T05:42:41;2.75;;;1.70;;
75649;SDS011;64245;51.282;22.494;2023-07-29T05:45:07;3.65;;;2.67;;
75649;SDS011;64245;51.282;22.494;2023-07-29T05:47:33;2.88;;;2.20;;
75649;SDS011;64245;51.282;22.494;2023-07-29T05:49:58;3.13;;;1.60;;
75649;SDS011;64245;51.282;22.494;2023-07-29T05:52:27;3.50;;;3.05;;
75649;SDS011;64245;51.282;22.494;2023-07-29T05:54:53;3.95;;;2.28;;
75649;SDS011;64245;51.282;22.494;2023-07-29T05:57:19;5.90;;;2.40;;
75649;SDS011;64245;51.282;22.494;2023-07-29T05:59:44;3.83;;;2.40;;
75649;SDS011;64245;51.282;22.494;2023-07-29T06:02:10;5.15;;;2.47;;
75649;SDS011;64245;51.282;22.494;2023-07-29T06:04:36;3.30;;;1.73;;
75649;SDS011;64245;51.282;22.494;2023-07-29T06:07:01;3.58;;;2.10;;
75649;SDS011;64245;51.282;22.494;2023-07-29T06:09:27;2.65;;;1.98;;
75649;SDS011;64245;51.282;22.494;2023-07-29T06:11:56;4.70;;;2.55;;
75649;SDS011;64245;51.282;22.494;2023-07-29T06:14:22;3.80;;;2.40;;
75649;SDS011;64245;51.282;22.494;2023-07-29T06:16:48;4.35;;;2.58;;
75649;SDS011;64245;51.282;22.494;2023-07-29T06:19:13;3.35;;;1.45;;
75649;SDS011;64245;51.282;22.494;2023-07-29T06:21:40;6.03;;;2.83;;
75649;SDS011;64245;51.282;22.494;2023-07-29T06:24:05;4.00;;;1.83;;
75649;SDS011;64245;51.282;22.494;2023-07-29T06:26:31;3.05;;;2.30;;
75649;SDS011;64245;51.282;22.494;2023-07-29T06:28:57;4.45;;;2.25;;
75649;SDS011;64245;51.282;22.494;2023-07-29T06:31:22;4.43;;;1.75;;
75649;SDS011;64245;51.282;22.494;2023-07-29T06:33:49;5.18;;;1.70;;
75649;SDS011;64245;51.282;22.494;2023-07-29T06:36:15;4.32;;;2.58;;
75649;SDS011;64245;51.282;22.494;2023-07-29T06:38:40;3.70;;;2.72;;
75649;SDS011;64245;51.282;22.494;2023-07-29T06:41:07;3.20;;;2.03;;
75649;SDS011;64245;51.282;22.494;2023-07-29T06:43:33;4.28;;;1.85;;
75649;SDS011;64245;51.282;22.494;2023-07-29T06:45:59;4.25;;;2.03;;
75649;SDS011;64245;51.282;22.494;2023-07-29T06:48:24;3.75;;;2.17;;
75649;SDS011;64245;51.282;22.494;2023-07-29T06:50:50;5.68;;;2.47;;
75649;SDS011;64245;51.282;22.494;2023-07-29T06:53:16;2.72;;;1.70;;
75649;SDS011;64245;51.282;22.494;2023-07-29T06:55:42;3.20;;;2.75;;
75649;SDS011;64245;51.282;22.494;2023-07-29T06:58:09;3.92;;;2.00;;
75649;SDS011;64245;51.282;22.494;2023-07-29T07:00:35;3.03;;;1.80;;
75649;SDS011;64245;51.282;22.494;2023-07-29T07:03:00;4.60;;;1.48;;
75649;SDS011;64245;51.282;22.494;2023-07-29T07:05:26;2.75;;;1.95;;
75649;SDS011;64245;51.282;22.494;2023-07-29T07:07:52;4.18;;;1.88;;
75649;SDS011;64245;51.282;22.494;2023-07-29T07:10:18;3.78;;;2.05;;
75649;SDS011;64245;51.282;22.494;2023-07-29T07:12:44;3.35;;;2.05;;
75649;SDS011;64245;51.282;22.494;2023-07-29T07:15:10;3.75;;;2.30;;
75649;SDS011;64245;51.282;22.494;2023-07-29T07:17:35;3.63;;;2.40;;
75649;SDS011;64245;51.282;22.494;2023-07-29T07:20:01;4.38;;;2.60;;
75649;SDS011;64245;51.282;22.494;2023-07-29T07:22:27;3.45;;;2.33;;
75649;SDS011;64245;51.282;22.494;2023-07-29T07:24:53;3.97;;;2.28;;
75649;SDS011;64245;51.282;22.494;2023-07-29T07:27:18;2.80;;;2.45;;
75649;SDS011;64245;51.282;22.494;2023-07-29T07:29:44;2.10;;;1.88;;
75649;SDS011;64245;51.282;22.494;2023-07-29T07:32:10;2.65;;;1.70;;
75649;SDS011;64245;51.282;22.494;2023-07-29T07:34:36;3.40;;;2.58;;
75649;SDS011;64245;51.282;22.494;2023-07-29T07:37:01;3.70;;;2.60;;
75649;SDS011;64245;51.282;22.494;2023-07-29T07:39:29;2.38;;;1.77;;
75649;SDS011;64245;51.282;22.494;2023-07-29T07:41:55;3.28;;;2.05;;
75649;SDS011;64245;51.282;22.494;2023-07-29T07:44:21;2.65;;;1.83;;
75649;SDS011;64245;51.282;22.494;2023-07-29T07:46:46;2.15;;;1.40;;
75649;SDS011;64245;51.282;22.494;2023-07-29T07:49:12;1.63;;;1.45;;
75649;SDS011;64245;51.282;22.494;2023-07-29T07:51:38;4.38;;;1.75;;
75649;SDS011;64245;51.282;22.494;2023-07-29T07:54:04;2.28;;;1.63;;
75649;SDS011;64245;51.282;22.494;2023-07-29T07:56:30;2.90;;;2.00;;
75649;SDS011;64245;51.282;22.494;2023-07-29T07:58:56;3.38;;;1.63;;
75649;SDS011;64245;51.282;22.494;2023-07-29T08:01:21;2.45;;;1.65;;
75649;SDS011;64245;51.282;22.494;2023-07-29T08:03:47;4.13;;;2.22;;
75649;SDS011;64245;51.282;22.494;2023-07-29T08:06:13;1.80;;;0.98;;
75649;SDS011;64245;51.282;22.494;2023-07-29T08:08:39;4.63;;;2.33;;
75649;SDS011;64245;51.282;22.494;2023-07-29T08:11:04;1.85;;;1.70;;
75649;SDS011;64245;51.282;22.494;2023-07-29T08:13:31;2.33;;;1.50;;
75649;SDS011;64245;51.282;22.494;2023-07-29T08:15:56;2.60;;;1.52;;
75649;SDS011;64245;51.282;22.494;2023-07-29T08:18:22;2.85;;;1.67;;
75649;SDS011;64245;51.282;22.494;2023-07-29T08:20:55;3.67;;;2.05;;
75649;SDS011;64245;51.282;22.494;2023-07-29T08:23:26;2.90;;;1.73;;
75649;SDS011;64245;51.282;22.494;2023-07-29T08:25:55;4.60;;;2.20;;
75649;SDS011;64245;51.282;22.494;2023-07-29T08:28:33;2.88;;;1.67;;
75649;SDS011;64245;51.282;22.494;2023-07-29T08:31:01;4.00;;;2.45;;
75649;SDS011;64245;51.282;22.494;2023-07-29T08:33:27;4.40;;;2.63;;
75649;SDS011;64245;51.282;22.494;2023-07-29T08:35:53;2.67;;;2.05;;
75649;SDS011;64245;51.282;22.494;2023-07-29T08:38:19;2.30;;;1.70;;
75649;SDS011;64245;51.282;22.494;2023-07-29T08:40:48;1.70;;;1.30;;
75649;SDS011;64245;51.282;22.494;2023-07-29T08:43:19;4.05;;;1.88;;
75649;SDS011;64245;51.282;22.494;2023-07-29T08:45:46;3.75;;;2.40;;
75649;SDS011;64245;51.282;22.494;2023-07-29T08:48:12;2.03;;;1.67;;
75649;SDS011;64245;51.282;22.494;2023-07-29T08:50:42;2.47;;;1.83;;
75649;SDS011;64245;51.282;22.494;2023-07-29T08:53:09;3.42;;;1.90;;
75649;SDS011;64245;51.282;22.494;2023-07-29T08:55:35;2.95;;;1.73;;
75649;SDS011;64245;51.282;22.494;2023-07-29T08:58:02;3.05;;;1.40;;
75649;SDS011;64245;51.282;22.494;2023-07-29T09:00:28;1.65;;;1.40;;
75649;SDS011;64245;51.282;22.494;2023-07-29T09:02:54;1.98;;;1.38;;
75649;SDS011;64245;51.282;22.494;2023-07-29T09:05:21;3.05;;;1.52;;
75649;SDS011;64245;51.282;22.494;2023-07-29T09:07:47;3.72;;;1.45;;
75649;SDS011;64245;51.282;22.494;2023-07-29T09:10:13;2.30;;;1.08;;
75649;SDS011;64245;51.282;22.494;2023-07-29T09:12:40;2.13;;;1.35;;
75649;SDS011;64245;51.282;22.494;2023-07-29T09:15:05;1.13;;;0.80;;
75649;SDS011;64245;51.282;22.494;2023-07-29T09:17:35;1.42;;;1.05;;
75649;SDS011;64245;51.282;22.494;2023-07-29T09:20:00;1.88;;;0.90;;
75649;SDS011;64245;51.282;22.494;2023-07-29T09:22:27;1.45;;;1.08;;
75649;SDS011;64245;51.282;22.494;2023-07-29T09:24:53;0.93;;;0.80;;
75649;SDS011;64245;51.282;22.494;2023-07-29T09:29:56;0.98;;;0.90;;
75649;SDS011;64245;51.282;22.494;2023-07-29T09:32:23;0.90;;;0.75;;
75649;SDS011;64245;51.282;22.494;2023-07-29T09:34:50;1.15;;;0.88;;
75649;SDS011;64245;51.282;22.494;2023-07-29T09:37:23;0.80;;;0.75;;
75649;SDS011;64245;51.282;22.494;2023-07-29T09:39:49;0.63;;;0.45;;
75649;SDS011;64245;51.282;22.494;2023-07-29T09:42:19;1.70;;;0.85;;
75649;SDS011;64245;51.282;22.494;2023-07-29T09:44:46;1.23;;;0.80;;
75649;SDS011;64245;51.282;22.494;2023-07-29T09:47:21;1.20;;;0.73;;
75649;SDS011;64245;51.282;22.494;2023-07-29T09:52:15;1.33;;;0.80;;
75649;SDS011;64245;51.282;22.494;2023-07-29T09:54:42;2.30;;;0.93;;
75649;SDS011;64245;51.282;22.494;2023-07-29T09:57:10;0.88;;;0.68;;
75649;SDS011;64245;51.282;22.494;2023-07-29T09:59:38;1.17;;;0.75;;
75649;SDS011;64245;51.282;22.494;2023-07-29T10:02:04;1.05;;;0.80;;
75649;SDS011;64245;51.282;22.494;2023-07-29T10:04:35;0.80;;;0.57;;
75649;SDS011;64245;51.282;22.494;2023-07-29T10:07:01;0.88;;;0.52;;
75649;SDS011;64245;51.282;22.494;2023-07-29T10:09:27;1.05;;;0.60;;
75649;SDS011;64245;51.282;22.494;2023-07-29T10:11:54;0.82;;;0.70;;
75649;SDS011;64245;51.282;22.494;2023-07-29T10:14:20;1.08;;;0.80;;
75649;SDS011;64245;51.282;22.494;2023-07-29T10:16:47;1.00;;;0.55;;
75649;SDS011;64245;51.282;22.494;2023-07-29T10:19:13;0.82;;;0.75;;
75649;SDS011;64245;51.282;22.494;2023-07-29T10:21:40;0.80;;;0.70;;
75649;SDS011;64245;51.282;22.494;2023-07-29T10:24:14;0.82;;;0.45;;
75649;SDS011;64245;51.282;22.494;2023-07-29T10:26:41;2.38;;;0.98;;
75649;SDS011;64245;51.282;22.494;2023-07-29T10:29:12;1.13;;;0.50;;
75649;SDS011;64245;51.282;22.494;2023-07-29T10:31:43;0.50;;;0.47;;
75649;SDS011;64245;51.282;22.494;2023-07-29T10:34:09;1.10;;;0.80;;
75649;SDS011;64245;51.282;22.494;2023-07-29T10:36:36;0.63;;;0.52;;
75649;SDS011;64245;51.282;22.494;2023-07-29T10:39:02;0.80;;;0.68;;
75649;SDS011;64245;51.282;22.494;2023-07-29T10:47:22;0.60;;;0.45;;
75649;SDS011;64245;51.282;22.494;2023-07-29T10:49:54;0.93;;;0.57;;
75649;SDS011;64245;51.282;22.494;2023-07-29T10:52:55;1.02;;;0.60;;
75649;SDS011;64245;51.282;22.494;2023-07-29T10:55:33;1.27;;;1.08;;
75649;SDS011;64245;51.282;22.494;2023-07-29T10:58:06;0.90;;;0.60;;
75649;SDS011;64245;51.282;22.494;2023-07-29T11:00:33;0.73;;;0.65;;
75649;SDS011;64245;51.282;22.494;2023-07-29T11:03:01;1.05;;;0.60;;
75649;SDS011;64245;51.282;22.494;2023-07-29T11:11:00;0.68;;;0.43;;
75649;SDS011;64245;51.282;22.494;2023-07-29T11:13:31;1.08;;;0.95;;
75649;SDS011;64245;51.282;22.494;2023-07-29T11:15:59;1.27;;;0.70;;
75649;SDS011;64245;51.282;22.494;2023-07-29T11:18:28;0.20;;;0.20;;
75649;SDS011;64245;51.282;22.494;2023-07-29T11:20:56;1.15;;;0.40;;
75649;SDS011;64245;51.282;22.494;2023-07-29T11:23:29;0.60;;;0.50;;
75649;SDS011;64245;51.282;22.494;2023-07-29T11:26:00;0.70;;;0.52;;
75649;SDS011;64245;51.282;22.494;2023-07-29T11:28:27;0.60;;;0.30;;
75649;SDS011;64245;51.282;22.494;2023-07-29T11:30:54;0.30;;;0.30;;
75649;SDS011;64245;51.282;22.494;2023-07-29T11:33:23;0.40;;;0.40;;
75649;SDS011;64245;51.282;22.494;2023-07-29T11:35:53;0.50;;;0.47;;
75649;SDS011;64245;51.282;22.494;2023-07-29T11:38:20;0.80;;;0.40;;
75649;SDS011;64245;51.282;22.494;2023-07-29T11:40:53;0.30;;;0.30;;
75649;SDS011;64245;51.282;22.494;2023-07-29T11:43:21;0.63;;;0.30;;
75649;SDS011;64245;51.282;22.494;2023-07-29T11:45:46;0.25;;;0.20;;
75649;SDS011;64245;51.282;22.494;2023-07-29T11:48:12;1.02;;;0.47;;
75649;SDS011;64245;51.282;22.494;2023-07-29T11:50:38;0.25;;;0.20;;
75649;SDS011;64245;51.282;22.494;2023-07-29T11:53:04;0.20;;;0.20;;
75649;SDS011;64245;51.282;22.494;2023-07-29T11:55:30;0.55;;;0.30;;
75649;SDS011;64245;51.282;22.494;2023-07-29T11:57:56;0.38;;;0.20;;
75649;SDS011;64245;51.282;22.494;2023-07-29T12:00:22;0.20;;;0.20;;
75649;SDS011;64245;51.282;22.494;2023-07-29T12:02:48;0.30;;;0.20;;
75649;SDS011;64245;51.282;22.494;2023-07-29T12:05:15;0.25;;;0.25;;
75649;SDS011;64245;51.282;22.494;2023-07-29T12:07:44;0.20;;;0.20;;
75649;SDS011;64245;51.282;22.494;2023-07-29T12:10:10;0.47;;;0.40;;
75649;SDS011;64245;51.282;22.494;2023-07-29T12:12:46;0.30;;;0.30;;
75649;SDS011;64245;51.282;22.494;2023-07-29T12:15:13;0.30;;;0.22;;
75649;SDS011;64245;51.282;22.494;2023-07-29T12:17:39;0.52;;;0.30;;
75649;SDS011;64245;51.282;22.494;2023-07-29T12:20:08;0.43;;;0.40;;
75649;SDS011;64245;51.282;22.494;2023-07-29T12:22:37;0.30;;;0.30;;
75649;SDS011;64245;51.282;22.494;2023-07-29T12:25:02;0.38;;;0.22;;
75649;SDS011;64245;51.282;22.494;2023-07-29T12:27:30;0.50;;;0.40;;
75649;SDS011;64245;51.282;22.494;2023-07-29T12:29:55;0.30;;;0.30;;
75649;SDS011;64245;51.282;22.494;2023-07-29T12:32:24;0.45;;;0.30;;
75649;SDS011;64245;51.282;22.494;2023-07-29T12:34:52;0.70;;;0.50;;
75649;SDS011;64245;51.282;22.494;2023-07-29T12:37:19;0.52;;;0.40;;
75649;SDS011;64245;51.282;22.494;2023-07-29T12:39:44;0.30;;;0.30;;
75649;SDS011;64245;51.282;22.494;2023-07-29T12:42:10;0.52;;;0.40;;
75649;SDS011;64245;51.282;22.494;2023-07-29T12:44:36;0.63;;;0.38;;
75649;SDS011;64245;51.282;22.494;2023-07-29T12:47:03;0.40;;;0.40;;
75649;SDS011;64245;51.282;22.494;2023-07-29T12:49:31;0.90;;;0.38;;
75649;SDS011;64245;51.282;22.494;2023-07-29T12:51:58;0.60;;;0.38;;
75649;SDS011;64245;51.282;22.494;2023-07-29T12:54:24;0.30;;;0.30;;
75649;SDS011;64245;51.282;22.494;2023-07-29T12:56:50;0.63;;;0.40;;
75649;SDS011;64245;51.282;22.494;2023-07-29T12:59:18;0.50;;;0.40;;
75649;SDS011;64245;51.282;22.494;2023-07-29T13:01:44;0.47;;;0.47;;
75649;SDS011;64245;51.282;22.494;2023-07-29T13:04:09;0.43;;;0.30;;
75649;SDS011;64245;51.282;22.494;2023-07-29T13:06:36;0.47;;;0.40;;
75649;SDS011;64245;51.282;22.494;2023-07-29T13:09:01;0.52;;;0.47;;
75649;SDS011;64245;51.282;22.494;2023-07-29T13:11:28;0.50;;;0.40;;
75649;SDS011;64245;51.282;22.494;2023-07-29T13:13:54;0.40;;;0.30;;
75649;SDS011;64245;51.282;22.494;2023-07-29T13:16:20;0.55;;;0.40;;
75649;SDS011;64245;51.282;22.494;2023-07-29T13:18:45;0.57;;;0.47;;
75649;SDS011;64245;51.282;22.494;2023-07-29T13:21:11;0.47;;;0.47;;
75649;SDS011;64245;51.282;22.494;2023-07-29T13:23:37;0.80;;;0.40;;
75649;SDS011;64245;51.282;22.494;2023-07-29T13:26:02;0.20;;;0.20;;
75649;SDS011;64245;51.282;22.494;2023-07-29T13:28:28;0.88;;;0.40;;
75649;SDS011;64245;51.282;22.494;2023-07-29T13:30:54;0.65;;;0.30;;
75649;SDS011;64245;51.282;22.494;2023-07-29T13:33:20;0.82;;;0.43;;
75649;SDS011;64245;51.282;22.494;2023-07-29T13:35:46;0.70;;;0.40;;
75649;SDS011;64245;51.282;22.494;2023-07-29T13:38:11;0.80;;;0.55;;
75649;SDS011;64245;51.282;22.494;2023-07-29T13:40:37;0.68;;;0.57;;
75649;SDS011;64245;51.282;22.494;2023-07-29T13:43:03;0.50;;;0.30;;
75649;SDS011;64245;51.282;22.494;2023-07-29T13:45:29;0.45;;;0.40;;
75649;SDS011;64245;51.282;22.494;2023-07-29T13:47:54;0.82;;;0.43;;
75649;SDS011;64245;51.282;22.494;2023-07-29T13:50:20;0.40;;;0.40;;
75649;SDS011;64245;51.282;22.494;2023-07-29T13:52:46;0.65;;;0.40;;
75649;SDS011;64245;51.282;22.494;2023-07-29T13:55:12;0.88;;;0.60;;
75649;SDS011;64245;51.282;22.494;2023-07-29T13:57:38;0.65;;;0.40;;
75649;SDS011;64245;51.282;22.494;2023-07-29T14:00:05;0.80;;;0.50;;
75649;SDS011;64245;51.282;22.494;2023-07-29T14:02:31;0.50;;;0.50;;
75649;SDS011;64245;51.282;22.494;2023-07-29T14:04:57;0.38;;;0.30;;
75649;SDS011;64245;51.282;22.494;2023-07-29T14:07:23;0.70;;;0.60;;
75649;SDS011;64245;51.282;22.494;2023-07-29T14:09:49;0.60;;;0.52;;
75649;SDS011;64245;51.282;22.494;2023-07-29T14:12:14;0.43;;;0.40;;
75649;SDS011;64245;51.282;22.494;2023-07-29T14:14:41;0.80;;;0.50;;
75649;SDS011;64245;51.282;22.494;2023-07-29T14:17:07;0.85;;;0.43;;
75649;SDS011;64245;51.282;22.494;2023-07-29T14:19:34;0.40;;;0.38;;
75649;SDS011;64245;51.282;22.494;2023-07-29T14:22:00;0.40;;;0.40;;
75649;SDS011;64245;51.282;22.494;2023-07-29T14:24:25;0.52;;;0.38;;
75649;SDS011;64245;51.282;22.494;2023-07-29T14:26:54;0.73;;;0.65;;
75649;SDS011;64245;51.282;22.494;2023-07-29T14:29:20;0.85;;;0.43;;
75649;SDS011;64245;51.282;22.494;2023-07-29T14:31:46;0.75;;;0.57;;
75649;SDS011;64245;51.282;22.494;2023-07-29T14:34:11;0.70;;;0.30;;
75649;SDS011;64245;51.282;22.494;2023-07-29T14:36:37;1.17;;;0.45;;
75649;SDS011;64245;51.282;22.494;2023-07-29T14:39:03;0.82;;;0.60;;
75649;SDS011;64245;51.282;22.494;2023-07-29T14:41:29;0.50;;;0.50;;
75649;SDS011;64245;51.282;22.494;2023-07-29T14:43:56;0.50;;;0.50;;
75649;SDS011;64245;51.282;22.494;2023-07-29T14:46:22;0.60;;;0.40;;
75649;SDS011;64245;51.282;22.494;2023-07-29T14:48:48;0.47;;;0.30;;
75649;SDS011;64245;51.282;22.494;2023-07-29T14:51:14;0.40;;;0.38;;
75649;SDS011;64245;51.282;22.494;2023-07-29T14:53:40;0.40;;;0.40;;
75649;SDS011;64245;51.282;22.494;2023-07-29T14:56:06;0.55;;;0.45;;
75649;SDS011;64245;51.282;22.494;2023-07-29T14:58:32;0.55;;;0.55;;